sensor_id;sensor_type;location;lat;lon;timestamp;P1;durP1;ratioP1;P2;durP2;ratioP2
13461;SDS011;6803;45.264;5.468;2022-07-10T00:00:25;4.47;;;2.13;;
13461;SDS011;6803;45.264;5.468;2022-07-10T00:02:56;4.80;;;2.30;;
13461;SDS011;6803;45.264;5.468;2022-07-10T00:05:28;2.83;;;2.10;;
13461;SDS011;6803;45.264;5.468;2022-07-10T00:07:59;3.87;;;2.00;;
13461;SDS011;6803;45.264;5.468;2022-07-10T00:10:30;2.20;;;2.00;;
13461;SDS011;6803;45.264;5.468;2022-07-10T00:13:01;2.80;;;2.20;;
13461;SDS011;6803;45.264;5.468;2022-07-10T00:15:32;2.30;;;1.93;;
13461;SDS011;6803;45.264;5.468;2022-07-10T00:18:03;2.20;;;2.00;;
13461;SDS011;6803;45.264;5.468;2022-07-10T00:20:34;2.43;;;2.23;;
13461;SDS011;6803;45.264;5.468;2022-07-10T00:23:04;2.40;;;1.90;;
13461;SDS011;6803;45.264;5.468;2022-07-10T00:25:35;2.47;;;2.27;;
13461;SDS011;6803;45.264;5.468;2022-07-10T00:28:06;4.30;;;2.10;;
13461;SDS011;6803;45.264;5.468;2022-07-10T00:30:36;2.73;;;2.20;;
13461;SDS011;6803;45.264;5.468;2022-07-10T00:33:07;2.80;;;2.13;;
13461;SDS011;6803;45.264;5.468;2022-07-10T00:35:38;2.33;;;1.90;;
13461;SDS011;6803;45.264;5.468;2022-07-10T00:38:08;3.33;;;2.43;;
13461;SDS011;6803;45.264;5.468;2022-07-10T00:40:39;3.00;;;2.27;;
13461;SDS011;6803;45.264;5.468;2022-07-10T00:43:10;3.70;;;2.20;;
13461;SDS011;6803;45.264;5.468;2022-07-10T00:45:41;2.80;;;2.27;;
13461;SDS011;6803;45.264;5.468;2022-07-10T00:48:12;3.03;;;2.00;;
13461;SDS011;6803;45.264;5.468;2022-07-10T00:50:42;3.27;;;2.30;;
13461;SDS011;6803;45.264;5.468;2022-07-10T00:53:15;3.00;;;2.30;;
13461;SDS011;6803;45.264;5.468;2022-07-10T00:55:46;3.57;;;2.40;;
13461;SDS011;6803;45.264;5.468;2022-07-10T00:58:16;2.40;;;2.20;;
13461;SDS011;6803;45.264;5.468;2022-07-10T01:00:47;2.60;;;2.27;;
13461;SDS011;6803;45.264;5.468;2022-07-10T01:03:18;4.57;;;2.33;;
13461;SDS011;6803;45.264;5.468;2022-07-10T01:05:49;2.50;;;2.27;;
13461;SDS011;6803;45.264;5.468;2022-07-10T01:08:19;3.10;;;2.60;;
13461;SDS011;6803;45.264;5.468;2022-07-10T01:10:50;3.30;;;2.53;;
13461;SDS011;6803;45.264;5.468;2022-07-10T01:13:21;4.97;;;2.17;;
13461;SDS011;6803;45.264;5.468;2022-07-10T01:15:52;6.63;;;2.60;;
13461;SDS011;6803;45.264;5.468;2022-07-10T01:18:23;4.17;;;2.97;;
13461;SDS011;6803;45.264;5.468;2022-07-10T01:20:54;3.23;;;2.40;;
13461;SDS011;6803;45.264;5.468;2022-07-10T01:23:25;3.03;;;2.63;;
13461;SDS011;6803;45.264;5.468;2022-07-10T01:25:56;3.37;;;2.53;;
13461;SDS011;6803;45.264;5.468;2022-07-10T01:28:28;3.83;;;2.30;;
13461;SDS011;6803;45.264;5.468;2022-07-10T01:31:00;3.30;;;2.10;;
13461;SDS011;6803;45.264;5.468;2022-07-10T01:33:31;4.33;;;2.60;;
13461;SDS011;6803;45.264;5.468;2022-07-10T01:36:01;5.70;;;2.40;;
13461;SDS011;6803;45.264;5.468;2022-07-10T01:38:32;2.60;;;2.23;;
13461;SDS011;6803;45.264;5.468;2022-07-10T01:41:04;4.07;;;2.10;;
13461;SDS011;6803;45.264;5.468;2022-07-10T01:43:36;3.70;;;2.37;;
13461;SDS011;6803;45.264;5.468;2022-07-10T01:46:08;3.17;;;2.20;;
13461;SDS011;6803;45.264;5.468;2022-07-10T01:48:40;4.00;;;2.37;;
13461;SDS011;6803;45.264;5.468;2022-07-10T01:51:12;3.70;;;2.47;;
13461;SDS011;6803;45.264;5.468;2022-07-10T01:53:42;4.90;;;2.20;;
13461;SDS011;6803;45.264;5.468;2022-07-10T01:56:14;3.97;;;2.40;;
13461;SDS011;6803;45.264;5.468;2022-07-10T01:58:45;3.30;;;2.10;;
13461;SDS011;6803;45.264;5.468;2022-07-10T02:01:15;5.70;;;2.53;;
13461;SDS011;6803;45.264;5.468;2022-07-10T02:03:46;3.40;;;2.00;;
13461;SDS011;6803;45.264;5.468;2022-07-10T02:06:35;2.47;;;2.10;;
13461;SDS011;6803;45.264;5.468;2022-07-10T02:09:05;2.60;;;2.27;;
13461;SDS011;6803;45.264;5.468;2022-07-10T02:11:36;3.53;;;2.50;;
13461;SDS011;6803;45.264;5.468;2022-07-10T02:14:07;4.73;;;2.50;;
13461;SDS011;6803;45.264;5.468;2022-07-10T02:16:37;3.63;;;2.03;;
13461;SDS011;6803;45.264;5.468;2022-07-10T02:19:08;3.90;;;2.30;;
13461;SDS011;6803;45.264;5.468;2022-07-10T02:21:39;3.00;;;2.30;;
13461;SDS011;6803;45.264;5.468;2022-07-10T02:24:09;4.00;;;2.67;;
13461;SDS011;6803;45.264;5.468;2022-07-10T02:26:40;3.40;;;2.40;;
13461;SDS011;6803;45.264;5.468;2022-07-10T02:29:11;6.17;;;2.70;;
13461;SDS011;6803;45.264;5.468;2022-07-10T02:31:42;2.57;;;2.20;;
13461;SDS011;6803;45.264;5.468;2022-07-10T02:34:13;3.00;;;2.50;;
13461;SDS011;6803;45.264;5.468;2022-07-10T02:36:44;4.43;;;2.77;;
13461;SDS011;6803;45.264;5.468;2022-07-10T02:39:14;7.20;;;2.73;;
13461;SDS011;6803;45.264;5.468;2022-07-10T02:41:46;4.00;;;2.47;;
13461;SDS011;6803;45.264;5.468;2022-07-10T02:44:17;4.60;;;2.53;;
13461;SDS011;6803;45.264;5.468;2022-07-10T02:46:48;2.73;;;2.20;;
13461;SDS011;6803;45.264;5.468;2022-07-10T02:49:18;4.87;;;2.53;;
13461;SDS011;6803;45.264;5.468;2022-07-10T02:51:49;3.97;;;2.43;;
13461;SDS011;6803;45.264;5.468;2022-07-10T02:54:20;4.47;;;2.33;;
13461;SDS011;6803;45.264;5.468;2022-07-10T02:56:51;4.37;;;2.60;;
13461;SDS011;6803;45.264;5.468;2022-07-10T02:59:22;5.77;;;2.47;;
13461;SDS011;6803;45.264;5.468;2022-07-10T03:01:52;4.07;;;2.63;;
13461;SDS011;6803;45.264;5.468;2022-07-10T03:04:23;2.50;;;2.30;;
13461;SDS011;6803;45.264;5.468;2022-07-10T03:06:53;2.20;;;2.00;;
13461;SDS011;6803;45.264;5.468;2022-07-10T03:09:24;2.40;;;2.20;;
13461;SDS011;6803;45.264;5.468;2022-07-10T03:11:55;3.10;;;2.60;;
13461;SDS011;6803;45.264;5.468;2022-07-10T03:14:26;2.53;;;2.23;;
13461;SDS011;6803;45.264;5.468;2022-07-10T03:16:56;3.73;;;2.67;;
13461;SDS011;6803;45.264;5.468;2022-07-10T03:19:27;3.17;;;2.57;;
13461;SDS011;6803;45.264;5.468;2022-07-10T03:21:58;3.40;;;2.80;;
13461;SDS011;6803;45.264;5.468;2022-07-10T03:24:28;4.20;;;2.20;;
13461;SDS011;6803;45.264;5.468;2022-07-10T03:26:59;2.47;;;2.20;;
13461;SDS011;6803;45.264;5.468;2022-07-10T03:29:30;4.27;;;3.03;;
13461;SDS011;6803;45.264;5.468;2022-07-10T03:32:00;2.87;;;2.60;;
13461;SDS011;6803;45.264;5.468;2022-07-10T03:34:32;4.97;;;2.70;;
13461;SDS011;6803;45.264;5.468;2022-07-10T03:37:03;4.17;;;2.70;;
13461;SDS011;6803;45.264;5.468;2022-07-10T03:39:34;2.40;;;2.17;;
13461;SDS011;6803;45.264;5.468;2022-07-10T03:42:06;5.00;;;2.70;;
13461;SDS011;6803;45.264;5.468;2022-07-10T03:44:36;3.90;;;2.67;;
13461;SDS011;6803;45.264;5.468;2022-07-10T03:47:07;3.00;;;2.30;;
13461;SDS011;6803;45.264;5.468;2022-07-10T03:49:38;3.60;;;2.40;;
13461;SDS011;6803;45.264;5.468;2022-07-10T03:52:09;4.30;;;2.30;;
13461;SDS011;6803;45.264;5.468;2022-07-10T03:54:39;2.83;;;2.30;;
13461;SDS011;6803;45.264;5.468;2022-07-10T03:57:10;6.03;;;2.57;;
13461;SDS011;6803;45.264;5.468;2022-07-10T03:59:58;2.60;;;2.40;;
13461;SDS011;6803;45.264;5.468;2022-07-10T04:02:29;3.30;;;2.27;;
13461;SDS011;6803;45.264;5.468;2022-07-10T04:05:00;3.20;;;2.50;;
13461;SDS011;6803;45.264;5.468;2022-07-10T04:07:33;4.73;;;2.47;;
13461;SDS011;6803;45.264;5.468;2022-07-10T04:10:04;4.90;;;2.37;;
13461;SDS011;6803;45.264;5.468;2022-07-10T04:12:37;2.33;;;2.13;;
13461;SDS011;6803;45.264;5.468;2022-07-10T04:15:09;2.87;;;2.20;;
13461;SDS011;6803;45.264;5.468;2022-07-10T04:20:29;4.83;;;2.40;;
13461;SDS011;6803;45.264;5.468;2022-07-10T04:23:00;2.90;;;2.37;;
13461;SDS011;6803;45.264;5.468;2022-07-10T04:25:31;5.47;;;2.60;;
13461;SDS011;6803;45.264;5.468;2022-07-10T04:28:01;3.50;;;2.43;;
13461;SDS011;6803;45.264;5.468;2022-07-10T04:30:33;5.00;;;2.70;;
13461;SDS011;6803;45.264;5.468;2022-07-10T04:33:03;3.73;;;2.70;;
13461;SDS011;6803;45.264;5.468;2022-07-10T04:35:32;3.50;;;2.20;;
13461;SDS011;6803;45.264;5.468;2022-07-10T04:38:02;2.63;;;2.40;;
13461;SDS011;6803;45.264;5.468;2022-07-10T04:40:33;3.13;;;2.23;;
13461;SDS011;6803;45.264;5.468;2022-07-10T04:43:05;4.93;;;2.30;;
13461;SDS011;6803;45.264;5.468;2022-07-10T04:45:37;2.67;;;2.20;;
13461;SDS011;6803;45.264;5.468;2022-07-10T04:48:07;2.37;;;2.17;;
13461;SDS011;6803;45.264;5.468;2022-07-10T04:50:38;2.50;;;2.30;;
13461;SDS011;6803;45.264;5.468;2022-07-10T04:53:09;4.43;;;2.33;;
13461;SDS011;6803;45.264;5.468;2022-07-10T04:55:39;2.60;;;2.07;;
13461;SDS011;6803;45.264;5.468;2022-07-10T04:58:10;3.43;;;2.40;;
13461;SDS011;6803;45.264;5.468;2022-07-10T05:00:41;3.97;;;2.23;;
13461;SDS011;6803;45.264;5.468;2022-07-10T05:03:11;3.90;;;2.20;;
13461;SDS011;6803;45.264;5.468;2022-07-10T05:05:43;3.60;;;2.40;;
13461;SDS011;6803;45.264;5.468;2022-07-10T05:08:14;2.50;;;2.30;;
13461;SDS011;6803;45.264;5.468;2022-07-10T05:10:45;3.67;;;2.63;;
13461;SDS011;6803;45.264;5.468;2022-07-10T05:13:15;3.43;;;2.23;;
13461;SDS011;6803;45.264;5.468;2022-07-10T05:15:46;2.37;;;2.17;;
13461;SDS011;6803;45.264;5.468;2022-07-10T05:18:17;3.10;;;2.30;;
13461;SDS011;6803;45.264;5.468;2022-07-10T05:20:48;3.67;;;2.60;;
13461;SDS011;6803;45.264;5.468;2022-07-10T05:23:19;2.53;;;2.17;;
13461;SDS011;6803;45.264;5.468;2022-07-10T05:25:49;3.13;;;2.20;;
13461;SDS011;6803;45.264;5.468;2022-07-10T05:28:20;3.47;;;2.40;;
13461;SDS011;6803;45.264;5.468;2022-07-10T05:30:51;3.03;;;2.10;;
13461;SDS011;6803;45.264;5.468;2022-07-10T05:33:22;2.80;;;2.27;;
13461;SDS011;6803;45.264;5.468;2022-07-10T05:35:54;1.97;;;1.70;;
13461;SDS011;6803;45.264;5.468;2022-07-10T05:38:25;2.13;;;1.67;;
13461;SDS011;6803;45.264;5.468;2022-07-10T05:40:56;4.30;;;2.20;;
13461;SDS011;6803;45.264;5.468;2022-07-10T05:43:26;4.87;;;2.33;;
13461;SDS011;6803;45.264;5.468;2022-07-10T05:45:58;3.17;;;2.07;;
13461;SDS011;6803;45.264;5.468;2022-07-10T05:48:28;2.90;;;1.50;;
13461;SDS011;6803;45.264;5.468;2022-07-10T05:50:59;3.10;;;2.20;;
13461;SDS011;6803;45.264;5.468;2022-07-10T05:53:31;2.13;;;1.87;;
13461;SDS011;6803;45.264;5.468;2022-07-10T05:56:02;1.90;;;1.70;;
13461;SDS011;6803;45.264;5.468;2022-07-10T05:58:34;5.67;;;1.70;;
13461;SDS011;6803;45.264;5.468;2022-07-10T06:01:05;4.00;;;2.13;;
13461;SDS011;6803;45.264;5.468;2022-07-10T06:03:36;5.77;;;2.20;;
13461;SDS011;6803;45.264;5.468;2022-07-10T06:06:07;3.27;;;1.90;;
13461;SDS011;6803;45.264;5.468;2022-07-10T06:08:38;2.27;;;1.70;;
13461;SDS011;6803;45.264;5.468;2022-07-10T06:11:09;1.73;;;1.63;;
13461;SDS011;6803;45.264;5.468;2022-07-10T06:13:40;2.20;;;1.97;;
13461;SDS011;6803;45.264;5.468;2022-07-10T06:16:11;6.33;;;1.70;;
13461;SDS011;6803;45.264;5.468;2022-07-10T06:18:41;3.93;;;2.10;;
13461;SDS011;6803;45.264;5.468;2022-07-10T06:21:13;3.47;;;1.80;;
13461;SDS011;6803;45.264;5.468;2022-07-10T06:23:45;2.70;;;1.80;;
13461;SDS011;6803;45.264;5.468;2022-07-10T06:26:16;3.30;;;2.00;;
13461;SDS011;6803;45.264;5.468;2022-07-10T06:28:46;4.50;;;1.93;;
13461;SDS011;6803;45.264;5.468;2022-07-10T06:31:17;3.00;;;1.70;;
13461;SDS011;6803;45.264;5.468;2022-07-10T06:33:48;2.47;;;1.83;;
13461;SDS011;6803;45.264;5.468;2022-07-10T06:36:18;2.80;;;2.00;;
13461;SDS011;6803;45.264;5.468;2022-07-10T06:38:51;4.00;;;2.17;;
13461;SDS011;6803;45.264;5.468;2022-07-10T06:41:21;2.27;;;1.90;;
13461;SDS011;6803;45.264;5.468;2022-07-10T06:43:52;3.93;;;2.27;;
13461;SDS011;6803;45.264;5.468;2022-07-10T06:46:22;5.53;;;2.00;;
13461;SDS011;6803;45.264;5.468;2022-07-10T06:48:53;1.90;;;1.80;;
13461;SDS011;6803;45.264;5.468;2022-07-10T06:51:24;1.90;;;1.50;;
13461;SDS011;6803;45.264;5.468;2022-07-10T06:53:55;3.17;;;1.90;;
13461;SDS011;6803;45.264;5.468;2022-07-10T06:56:27;2.47;;;1.70;;
13461;SDS011;6803;45.264;5.468;2022-07-10T07:01:34;3.50;;;1.73;;
13461;SDS011;6803;45.264;5.468;2022-07-10T07:04:05;2.03;;;1.60;;
13461;SDS011;6803;45.264;5.468;2022-07-10T07:06:36;2.07;;;1.60;;
13461;SDS011;6803;45.264;5.468;2022-07-10T07:09:07;3.17;;;1.73;;
13461;SDS011;6803;45.264;5.468;2022-07-10T07:11:37;5.07;;;1.87;;
13461;SDS011;6803;45.264;5.468;2022-07-10T07:14:08;2.87;;;1.90;;
13461;SDS011;6803;45.264;5.468;2022-07-10T07:16:39;3.63;;;2.00;;
13461;SDS011;6803;45.264;5.468;2022-07-10T07:19:11;2.77;;;1.90;;
13461;SDS011;6803;45.264;5.468;2022-07-10T07:21:45;3.87;;;1.90;;
13461;SDS011;6803;45.264;5.468;2022-07-10T07:24:33;4.83;;;2.30;;
13461;SDS011;6803;45.264;5.468;2022-07-10T07:27:04;2.10;;;1.90;;
13461;SDS011;6803;45.264;5.468;2022-07-10T07:29:35;3.90;;;1.80;;
13461;SDS011;6803;45.264;5.468;2022-07-10T07:32:07;2.73;;;1.60;;
13461;SDS011;6803;45.264;5.468;2022-07-10T07:34:37;3.70;;;1.83;;
13461;SDS011;6803;45.264;5.468;2022-07-10T07:37:08;4.23;;;1.50;;
13461;SDS011;6803;45.264;5.468;2022-07-10T07:39:39;3.20;;;1.90;;
13461;SDS011;6803;45.264;5.468;2022-07-10T07:42:09;3.90;;;1.90;;
13461;SDS011;6803;45.264;5.468;2022-07-10T07:44:40;3.63;;;1.77;;
13461;SDS011;6803;45.264;5.468;2022-07-10T07:47:10;3.43;;;2.03;;
13461;SDS011;6803;45.264;5.468;2022-07-10T07:49:41;2.20;;;1.70;;
13461;SDS011;6803;45.264;5.468;2022-07-10T07:52:13;2.67;;;1.73;;
13461;SDS011;6803;45.264;5.468;2022-07-10T07:54:44;3.17;;;1.80;;
13461;SDS011;6803;45.264;5.468;2022-07-10T07:57:14;2.43;;;1.50;;
13461;SDS011;6803;45.264;5.468;2022-07-10T07:59:46;2.43;;;1.50;;
13461;SDS011;6803;45.264;5.468;2022-07-10T08:02:16;4.47;;;1.72;;
13461;SDS011;6803;45.264;5.468;2022-07-10T08:04:47;3.67;;;1.80;;
13461;SDS011;6803;45.264;5.468;2022-07-10T08:07:18;1.43;;;1.33;;
13461;SDS011;6803;45.264;5.468;2022-07-10T08:09:49;3.58;;;1.75;;
13461;SDS011;6803;45.264;5.468;2022-07-10T08:12:20;5.07;;;1.53;;
13461;SDS011;6803;45.264;5.468;2022-07-10T08:14:58;5.33;;;1.77;;
13461;SDS011;6803;45.264;5.468;2022-07-10T08:17:29;5.62;;;1.80;;
13461;SDS011;6803;45.264;5.468;2022-07-10T08:19:59;3.47;;;1.50;;
13461;SDS011;6803;45.264;5.468;2022-07-10T08:22:30;2.63;;;1.80;;
13461;SDS011;6803;45.264;5.468;2022-07-10T08:25:02;6.37;;;1.85;;
13461;SDS011;6803;45.264;5.468;2022-07-10T08:27:33;4.70;;;1.57;;
13461;SDS011;6803;45.264;5.468;2022-07-10T08:30:05;1.92;;;1.47;;
13461;SDS011;6803;45.264;5.468;2022-07-10T08:32:38;3.90;;;1.57;;
13461;SDS011;6803;45.264;5.468;2022-07-10T08:35:11;1.80;;;1.40;;
13461;SDS011;6803;45.264;5.468;2022-07-10T08:37:42;4.12;;;1.80;;
13461;SDS011;6803;45.264;5.468;2022-07-10T08:40:14;1.60;;;1.37;;
13461;SDS011;6803;45.264;5.468;2022-07-10T08:42:46;1.50;;;1.40;;
13461;SDS011;6803;45.264;5.468;2022-07-10T08:45:17;1.82;;;1.30;;
13461;SDS011;6803;45.264;5.468;2022-07-10T08:47:48;5.08;;;1.70;;
13461;SDS011;6803;45.264;5.468;2022-07-10T08:50:22;1.50;;;1.40;;
13461;SDS011;6803;45.264;5.468;2022-07-10T08:52:57;2.17;;;1.40;;
13461;SDS011;6803;45.264;5.468;2022-07-10T08:55:30;1.95;;;1.35;;
13461;SDS011;6803;45.264;5.468;2022-07-10T08:58:00;1.85;;;1.50;;
13461;SDS011;6803;45.264;5.468;2022-07-10T09:00:33;1.80;;;1.40;;
13461;SDS011;6803;45.264;5.468;2022-07-10T09:03:03;4.35;;;1.15;;
13461;SDS011;6803;45.264;5.468;2022-07-10T09:05:34;2.60;;;1.30;;
13461;SDS011;6803;45.264;5.468;2022-07-10T09:08:09;2.60;;;1.55;;
13461;SDS011;6803;45.264;5.468;2022-07-10T09:10:51;1.95;;;1.60;;
13461;SDS011;6803;45.264;5.468;2022-07-10T09:13:29;3.02;;;1.30;;
13461;SDS011;6803;45.264;5.468;2022-07-10T09:16:00;1.85;;;1.50;;
13461;SDS011;6803;45.264;5.468;2022-07-10T09:18:32;1.80;;;1.40;;
13461;SDS011;6803;45.264;5.468;2022-07-10T09:21:04;3.25;;;1.50;;
13461;SDS011;6803;45.264;5.468;2022-07-10T09:23:38;2.40;;;1.35;;
13461;SDS011;6803;45.264;5.468;2022-07-10T09:26:09;1.60;;;1.40;;
13461;SDS011;6803;45.264;5.468;2022-07-10T09:28:40;2.50;;;1.42;;
13461;SDS011;6803;45.264;5.468;2022-07-10T09:31:11;4.92;;;1.40;;
13461;SDS011;6803;45.264;5.468;2022-07-10T09:33:42;2.52;;;1.40;;
13461;SDS011;6803;45.264;5.468;2022-07-10T09:36:14;3.30;;;1.60;;
13461;SDS011;6803;45.264;5.468;2022-07-10T09:38:50;2.98;;;1.65;;
13461;SDS011;6803;45.264;5.468;2022-07-10T09:41:27;4.00;;;1.52;;
13461;SDS011;6803;45.264;5.468;2022-07-10T09:44:00;1.72;;;1.47;;
13461;SDS011;6803;45.264;5.468;2022-07-10T09:46:33;1.85;;;1.40;;
13461;SDS011;6803;45.264;5.468;2022-07-10T09:49:06;2.25;;;1.40;;
13461;SDS011;6803;45.264;5.468;2022-07-10T09:51:38;4.95;;;1.82;;
13461;SDS011;6803;45.264;5.468;2022-07-10T09:54:12;2.72;;;1.20;;
13461;SDS011;6803;45.264;5.468;2022-07-10T09:56:44;2.58;;;1.40;;
13461;SDS011;6803;45.264;5.468;2022-07-10T09:59:16;1.60;;;1.12;;
13461;SDS011;6803;45.264;5.468;2022-07-10T10:01:48;2.72;;;1.20;;
13461;SDS011;6803;45.264;5.468;2022-07-10T10:04:21;3.00;;;1.20;;
13461;SDS011;6803;45.264;5.468;2022-07-10T10:06:53;2.98;;;1.30;;
13461;SDS011;6803;45.264;5.468;2022-07-10T10:09:26;4.17;;;1.65;;
13461;SDS011;6803;45.264;5.468;2022-07-10T10:12:00;1.52;;;1.12;;
13461;SDS011;6803;45.264;5.468;2022-07-10T10:14:34;2.37;;;1.30;;
13461;SDS011;6803;45.264;5.468;2022-07-10T10:17:06;1.82;;;1.25;;
13461;SDS011;6803;45.264;5.468;2022-07-10T10:19:39;1.37;;;1.27;;
13461;SDS011;6803;45.264;5.468;2022-07-10T10:22:28;1.75;;;1.30;;
13461;SDS011;6803;45.264;5.468;2022-07-10T10:25:01;1.40;;;1.22;;
13461;SDS011;6803;45.264;5.468;2022-07-10T10:27:33;1.60;;;1.45;;
13461;SDS011;6803;45.264;5.468;2022-07-10T10:30:06;1.82;;;1.10;;
13461;SDS011;6803;45.264;5.468;2022-07-10T10:32:40;4.22;;;1.50;;
13461;SDS011;6803;45.264;5.468;2022-07-10T10:35:10;2.00;;;1.40;;
13461;SDS011;6803;45.264;5.468;2022-07-10T10:37:43;2.08;;;1.42;;
13461;SDS011;6803;45.264;5.468;2022-07-10T10:40:30;2.08;;;1.40;;
13461;SDS011;6803;45.264;5.468;2022-07-10T10:43:15;2.83;;;1.27;;
13461;SDS011;6803;45.264;5.468;2022-07-10T10:45:48;3.22;;;1.50;;
13461;SDS011;6803;45.264;5.468;2022-07-10T10:48:19;4.03;;;1.30;;
13461;SDS011;6803;45.264;5.468;2022-07-10T10:50:53;2.67;;;1.55;;
13461;SDS011;6803;45.264;5.468;2022-07-10T10:53:25;2.62;;;1.30;;
13461;SDS011;6803;45.264;5.468;2022-07-10T10:58:54;2.83;;;1.42;;
13461;SDS011;6803;45.264;5.468;2022-07-10T11:01:28;2.33;;;1.22;;
13461;SDS011;6803;45.264;5.468;2022-07-10T11:04:16;2.08;;;1.27;;
13461;SDS011;6803;45.264;5.468;2022-07-10T11:06:48;4.65;;;1.30;;
13461;SDS011;6803;45.264;5.468;2022-07-10T11:09:24;2.08;;;1.22;;
13461;SDS011;6803;45.264;5.468;2022-07-10T11:12:03;1.60;;;1.30;;
13461;SDS011;6803;45.264;5.468;2022-07-10T11:14:36;2.42;;;1.55;;
13461;SDS011;6803;45.264;5.468;2022-07-10T11:17:09;1.60;;;1.20;;
13461;SDS011;6803;45.264;5.468;2022-07-10T11:19:41;2.42;;;1.30;;
13461;SDS011;6803;45.264;5.468;2022-07-10T11:22:18;1.67;;;1.20;;
13461;SDS011;6803;45.264;5.468;2022-07-10T11:25:06;2.95;;;1.30;;
13461;SDS011;6803;45.264;5.468;2022-07-10T11:30:46;2.37;;;1.40;;
13461;SDS011;6803;45.264;5.468;2022-07-10T11:33:19;2.33;;;1.40;;
13461;SDS011;6803;45.264;5.468;2022-07-10T11:35:51;3.90;;;1.27;;
13461;SDS011;6803;45.264;5.468;2022-07-10T11:38:24;2.02;;;1.32;;
13461;SDS011;6803;45.264;5.468;2022-07-10T11:40:57;1.92;;;1.35;;
13461;SDS011;6803;45.264;5.468;2022-07-10T11:43:27;1.98;;;1.27;;
13461;SDS011;6803;45.264;5.468;2022-07-10T11:46:00;2.45;;;1.55;;
13461;SDS011;6803;45.264;5.468;2022-07-10T11:48:33;3.92;;;1.30;;
13461;SDS011;6803;45.264;5.468;2022-07-10T11:51:05;2.58;;;1.30;;
13461;SDS011;6803;45.264;5.468;2022-07-10T11:53:53;1.80;;;1.42;;
13461;SDS011;6803;45.264;5.468;2022-07-10T11:56:26;2.58;;;1.30;;
13461;SDS011;6803;45.264;5.468;2022-07-10T11:59:00;1.82;;;1.27;;
13461;SDS011;6803;45.264;5.468;2022-07-10T12:01:32;2.33;;;1.20;;
13461;SDS011;6803;45.264;5.468;2022-07-10T12:04:05;3.92;;;1.55;;
13461;SDS011;6803;45.264;5.468;2022-07-10T12:06:38;1.90;;;1.37;;
13461;SDS011;6803;45.264;5.468;2022-07-10T12:09:10;1.85;;;1.15;;
13461;SDS011;6803;45.264;5.468;2022-07-10T12:11:42;1.90;;;1.40;;
13461;SDS011;6803;45.264;5.468;2022-07-10T12:14:16;1.37;;;1.17;;
13461;SDS011;6803;45.264;5.468;2022-07-10T12:16:48;3.02;;;1.55;;
13461;SDS011;6803;45.264;5.468;2022-07-10T12:19:21;2.35;;;1.40;;
13461;SDS011;6803;45.264;5.468;2022-07-10T12:21:53;2.08;;;1.45;;
13461;SDS011;6803;45.264;5.468;2022-07-10T12:24:24;5.10;;;1.60;;
13461;SDS011;6803;45.264;5.468;2022-07-10T12:26:55;1.90;;;1.32;;
13461;SDS011;6803;45.264;5.468;2022-07-10T12:29:27;1.85;;;1.30;;
13461;SDS011;6803;45.264;5.468;2022-07-10T12:31:59;2.27;;;1.32;;
13461;SDS011;6803;45.264;5.468;2022-07-10T12:34:34;1.37;;;1.27;;
13461;SDS011;6803;45.264;5.468;2022-07-10T12:37:08;1.65;;;1.37;;
13461;SDS011;6803;45.264;5.468;2022-07-10T12:39:46;1.45;;;1.20;;
13461;SDS011;6803;45.264;5.468;2022-07-10T12:42:25;1.42;;;1.30;;
13461;SDS011;6803;45.264;5.468;2022-07-10T12:45:08;1.85;;;1.25;;
13461;SDS011;6803;45.264;5.468;2022-07-10T12:47:46;3.35;;;1.22;;
13461;SDS011;6803;45.264;5.468;2022-07-10T12:50:19;2.17;;;1.30;;
13461;SDS011;6803;45.264;5.468;2022-07-10T12:52:51;1.65;;;1.30;;
13461;SDS011;6803;45.264;5.468;2022-07-10T12:55:39;2.52;;;1.42;;
13461;SDS011;6803;45.264;5.468;2022-07-10T12:58:10;2.12;;;1.37;;
13461;SDS011;6803;45.264;5.468;2022-07-10T13:00:44;2.27;;;1.30;;
13461;SDS011;6803;45.264;5.468;2022-07-10T13:03:18;2.20;;;1.20;;
13461;SDS011;6803;45.264;5.468;2022-07-10T13:05:52;1.30;;;1.20;;
13461;SDS011;6803;45.264;5.468;2022-07-10T13:08:24;2.85;;;1.37;;
13461;SDS011;6803;45.264;5.468;2022-07-10T13:10:56;3.30;;;1.35;;
13461;SDS011;6803;45.264;5.468;2022-07-10T13:13:27;2.12;;;1.32;;
13461;SDS011;6803;45.264;5.468;2022-07-10T13:15:58;2.92;;;1.52;;
13461;SDS011;6803;45.264;5.468;2022-07-10T13:18:29;4.72;;;1.40;;
13461;SDS011;6803;45.264;5.468;2022-07-10T13:20:59;3.30;;;1.35;;
13461;SDS011;6803;45.264;5.468;2022-07-10T13:23:31;1.45;;;1.32;;
13461;SDS011;6803;45.264;5.468;2022-07-10T13:26:03;1.42;;;1.27;;
13461;SDS011;6803;45.264;5.468;2022-07-10T13:28:35;3.58;;;1.72;;
13461;SDS011;6803;45.264;5.468;2022-07-10T13:31:06;3.10;;;1.17;;
13461;SDS011;6803;45.264;5.468;2022-07-10T13:33:37;4.22;;;1.72;;
13461;SDS011;6803;45.264;5.468;2022-07-10T13:36:07;6.70;;;1.75;;
13461;SDS011;6803;45.264;5.468;2022-07-10T13:38:39;1.62;;;1.50;;
13461;SDS011;6803;45.264;5.468;2022-07-10T13:41:10;2.22;;;1.55;;
13461;SDS011;6803;45.264;5.468;2022-07-10T13:43:41;2.30;;;1.47;;
13461;SDS011;6803;45.264;5.468;2022-07-10T13:46:11;2.45;;;1.40;;
13461;SDS011;6803;45.264;5.468;2022-07-10T13:48:43;2.62;;;1.50;;
13461;SDS011;6803;45.264;5.468;2022-07-10T13:51:21;2.02;;;1.50;;
13461;SDS011;6803;45.264;5.468;2022-07-10T13:53:52;1.30;;;1.20;;
13461;SDS011;6803;45.264;5.468;2022-07-10T13:56:22;2.40;;;1.40;;
13461;SDS011;6803;45.264;5.468;2022-07-10T13:58:53;4.80;;;1.55;;
13461;SDS011;6803;45.264;5.468;2022-07-10T14:01:24;1.67;;;1.22;;
13461;SDS011;6803;45.264;5.468;2022-07-10T14:03:55;2.08;;;1.42;;
13461;SDS011;6803;45.264;5.468;2022-07-10T14:06:26;2.65;;;1.30;;
13461;SDS011;6803;45.264;5.468;2022-07-10T14:08:56;7.87;;;1.52;;
13461;SDS011;6803;45.264;5.468;2022-07-10T14:11:27;2.02;;;1.40;;
13461;SDS011;6803;45.264;5.468;2022-07-10T14:13:58;1.55;;;1.22;;
13461;SDS011;6803;45.264;5.468;2022-07-10T14:16:29;2.05;;;1.45;;
13461;SDS011;6803;45.264;5.468;2022-07-10T14:19:00;2.33;;;1.70;;
13461;SDS011;6803;45.264;5.468;2022-07-10T14:21:33;3.27;;;1.52;;
13461;SDS011;6803;45.264;5.468;2022-07-10T14:24:05;1.32;;;1.17;;
13461;SDS011;6803;45.264;5.468;2022-07-10T14:26:36;2.77;;;1.40;;
13461;SDS011;6803;45.264;5.468;2022-07-10T14:29:07;3.35;;;1.62;;
13461;SDS011;6803;45.264;5.468;2022-07-10T14:31:38;6.22;;;1.45;;
13461;SDS011;6803;45.264;5.468;2022-07-10T14:34:09;1.95;;;1.32;;
13461;SDS011;6803;45.264;5.468;2022-07-10T14:36:39;1.80;;;1.42;;
13461;SDS011;6803;45.264;5.468;2022-07-10T14:39:12;1.82;;;1.42;;
13461;SDS011;6803;45.264;5.468;2022-07-10T14:41:43;3.15;;;1.40;;
13461;SDS011;6803;45.264;5.468;2022-07-10T14:44:13;1.75;;;1.47;;
13461;SDS011;6803;45.264;5.468;2022-07-10T14:46:44;2.47;;;1.52;;
13461;SDS011;6803;45.264;5.468;2022-07-10T14:49:15;2.47;;;1.42;;
13461;SDS011;6803;45.264;5.468;2022-07-10T14:51:46;2.33;;;1.32;;
13461;SDS011;6803;45.264;5.468;2022-07-10T14:54:17;2.10;;;1.47;;
13461;SDS011;6803;45.264;5.468;2022-07-10T14:56:48;2.35;;;1.37;;
13461;SDS011;6803;45.264;5.468;2022-07-10T14:59:19;4.12;;;1.60;;
13461;SDS011;6803;45.264;5.468;2022-07-10T15:01:49;3.52;;;1.37;;
13461;SDS011;6803;45.264;5.468;2022-07-10T15:04:21;1.57;;;1.25;;
13461;SDS011;6803;45.264;5.468;2022-07-10T15:06:51;4.55;;;1.57;;
13461;SDS011;6803;45.264;5.468;2022-07-10T15:09:22;1.75;;;1.57;;
13461;SDS011;6803;45.264;5.468;2022-07-10T15:11:53;3.25;;;1.45;;
13461;SDS011;6803;45.264;5.468;2022-07-10T15:14:24;1.80;;;1.27;;
13461;SDS011;6803;45.264;5.468;2022-07-10T15:16:55;2.08;;;1.62;;
13461;SDS011;6803;45.264;5.468;2022-07-10T15:19:26;1.37;;;1.17;;
13461;SDS011;6803;45.264;5.468;2022-07-10T15:21:58;4.25;;;1.30;;
13461;SDS011;6803;45.264;5.468;2022-07-10T15:24:29;5.00;;;1.57;;
13461;SDS011;6803;45.264;5.468;2022-07-10T15:26:59;6.05;;;1.42;;
13461;SDS011;6803;45.264;5.468;2022-07-10T15:29:30;5.22;;;1.65;;
13461;SDS011;6803;45.264;5.468;2022-07-10T15:32:01;3.47;;;1.52;;
13461;SDS011;6803;45.264;5.468;2022-07-10T15:34:33;2.25;;;1.50;;
13461;SDS011;6803;45.264;5.468;2022-07-10T15:37:04;1.45;;;1.35;;
13461;SDS011;6803;45.264;5.468;2022-07-10T15:39:35;4.95;;;1.57;;